createdAt,value
2019-05-10T00:00:15.552Z,8.85
2019-05-10T00:03:02.595Z,8.86
2019-05-10T00:05:49.931Z,8.92
2019-05-10T00:08:36.572Z,9.12
2019-05-10T00:11:34.539Z,9.09
2019-05-10T00:14:18.291Z,9.01
2019-05-10T00:16:48.237Z,8.97
2019-05-10T00:19:16.998Z,9.06
2019-05-10T00:21:45.759Z,9.65
2019-05-10T00:24:14.434Z,10.62
2019-05-10T00:26:43.122Z,11.02
2019-05-10T00:29:12.054Z,11.12
2019-05-10T00:31:40.961Z,11.03
2019-05-10T00:34:09.977Z,11.12
2019-05-10T00:36:38.701Z,11.17
2019-05-10T00:39:07.726Z,11.24
2019-05-10T00:41:36.418Z,11.24
2019-05-10T00:44:05.255Z,11.20
2019-05-10T00:46:33.952Z,11.19
2019-05-10T00:49:02.624Z,11.17
2019-05-10T00:51:31.290Z,11.20
2019-05-10T00:53:59.976Z,11.21
2019-05-10T00:56:28.689Z,11.20
2019-05-10T00:58:57.371Z,11.25
2019-05-10T01:01:26.029Z,11.22
2019-05-10T01:03:54.759Z,11.27
2019-05-10T01:06:23.457Z,11.27
2019-05-10T01:08:52.161Z,11.21
2019-05-10T01:11:20.838Z,11.12
2019-05-10T01:13:49.513Z,11.16
2019-05-10T01:16:18.599Z,11.21
2019-05-10T01:18:47.275Z,11.18
2019-05-10T01:21:15.968Z,11.18
2019-05-10T01:23:44.659Z,11.18
2019-05-10T01:26:13.393Z,11.13
2019-05-10T01:28:42.065Z,11.13
2019-05-10T01:31:10.753Z,11.11
2019-05-10T01:33:39.487Z,11.03
2019-05-10T01:36:08.158Z,11.00
2019-05-10T01:38:36.845Z,10.99
2019-05-10T01:41:05.496Z,10.99
2019-05-10T01:43:34.161Z,10.95
2019-05-10T01:46:02.928Z,10.89
2019-05-10T01:48:31.611Z,10.88
2019-05-10T01:51:00.270Z,10.88
2019-05-10T01:53:28.941Z,10.89
2019-05-10T01:55:57.594Z,10.92
2019-05-10T01:58:26.259Z,10.91
2019-05-10T02:00:55.024Z,10.89
2019-05-10T02:03:23.688Z,10.92
2019-05-10T02:05:52.348Z,10.94
2019-05-10T02:08:21.044Z,10.94
2019-05-10T02:10:49.696Z,10.95
2019-05-10T02:13:18.353Z,10.98
2019-05-10T02:15:47.035Z,10.99
2019-05-10T02:18:15.839Z,10.92
2019-05-10T02:20:44.499Z,10.99
2019-05-10T02:23:13.199Z,11.00
2019-05-10T02:25:41.856Z,11.00
2019-05-10T02:28:10.598Z,11.02
2019-05-10T02:30:39.288Z,11.01
2019-05-10T02:33:07.941Z,10.99
2019-05-10T02:35:36.627Z,11.05
2019-05-10T02:38:05.296Z,11.01
2019-05-10T02:40:33.961Z,10.97
2019-05-10T02:43:02.637Z,10.94
2019-05-10T02:45:31.357Z,10.92
2019-05-10T02:48:00.013Z,10.97
2019-05-10T02:50:28.706Z,10.91
2019-05-10T02:52:57.382Z,10.86
2019-05-10T02:55:26.607Z,10.77
2019-05-10T02:57:55.612Z,10.66
2019-05-10T03:00:25.550Z,10.82
2019-05-10T03:02:56.095Z,10.81
2019-05-10T03:05:28.441Z,10.76
2019-05-10T03:07:58.837Z,10.76
2019-05-10T03:10:31.531Z,10.68
2019-05-10T03:13:01.444Z,10.63
2019-05-10T03:15:37.320Z,10.52
2019-05-10T03:18:07.127Z,10.51
2019-05-10T03:20:38.446Z,10.35
2019-05-10T03:23:10.460Z,10.20
2019-05-10T03:25:39.191Z,10.13
2019-05-10T03:28:07.857Z,10.05
2019-05-10T03:30:36.609Z,9.72
2019-05-10T03:33:05.297Z,9.60
2019-05-10T03:35:34.253Z,9.38
2019-05-10T03:38:02.916Z,9.26
2019-05-10T03:40:32.656Z,9.03
2019-05-10T03:43:01.310Z,8.94
2019-05-10T03:45:29.987Z,9.24
2019-05-10T03:47:58.639Z,9.14
2019-05-10T03:50:27.325Z,8.86
2019-05-10T03:52:55.978Z,8.60
2019-05-10T03:55:24.639Z,8.20
2019-05-10T03:57:53.321Z,8.02
2019-05-10T04:00:23.618Z,8.34
2019-05-10T04:02:52.275Z,8.24
2019-05-10T04:05:20.949Z,8.27
2019-05-10T04:07:49.604Z,8.19
2019-05-10T04:10:20.941Z,8.29
2019-05-10T04:12:48.846Z,8.73
2019-05-10T04:15:17.594Z,8.94
2019-05-10T04:17:50.176Z,9.07
2019-05-10T04:20:16.795Z,9.22
2019-05-10T04:22:45.508Z,9.34
2019-05-10T04:25:14.345Z,9.60
2019-05-10T04:27:43.006Z,9.66
2019-05-10T04:30:12.248Z,9.63
2019-05-10T04:32:40.899Z,9.77
2019-05-10T04:35:09.689Z,9.83
2019-05-10T04:37:38.340Z,9.91
2019-05-10T04:40:07.558Z,9.91
2019-05-10T04:42:36.243Z,9.97
2019-05-10T04:45:05.613Z,10.05
2019-05-10T04:47:34.262Z,10.19
2019-05-10T04:50:02.971Z,10.20
2019-05-10T04:52:31.657Z,10.28
2019-05-10T04:55:00.342Z,10.30
2019-05-10T04:57:29.009Z,10.32
2019-05-10T04:59:57.688Z,10.41
2019-05-10T05:02:26.383Z,10.40
2019-05-10T05:04:55.056Z,10.43
2019-05-10T05:07:23.722Z,10.39
2019-05-10T05:09:52.402Z,10.54
2019-05-10T05:12:21.068Z,10.55
2019-05-10T05:14:49.749Z,10.63
2019-05-10T05:17:18.405Z,10.63
2019-05-10T05:19:47.107Z,10.74
2019-05-10T05:22:15.812Z,10.98
2019-05-10T05:24:44.512Z,11.18
2019-05-10T05:27:13.181Z,11.57
2019-05-10T05:29:41.850Z,11.78
2019-05-10T05:32:13.336Z,11.79
2019-05-10T05:34:40.941Z,11.84
2019-05-10T05:37:09.600Z,11.72
2019-05-10T05:39:38.334Z,11.83
2019-05-10T05:42:06.967Z,11.72
2019-05-10T05:44:35.633Z,11.82
2019-05-10T05:47:04.969Z,11.79
2019-05-10T05:49:33.895Z,11.84
2019-05-10T05:52:02.552Z,11.92
2019-05-10T05:54:31.245Z,12.00
2019-05-10T05:56:59.911Z,12.04
2019-05-10T05:59:28.576Z,12.14
2019-05-10T06:02:00.589Z,12.05
2019-05-10T06:04:27.657Z,12.04
2019-05-10T06:06:59.249Z,12.11
2019-05-10T06:09:31.877Z,12.02
2019-05-10T06:11:57.150Z,12.11
2019-05-10T06:14:25.843Z,12.13
2019-05-10T06:16:54.516Z,12.03
2019-05-10T06:19:29.414Z,11.88
2019-05-10T06:21:58.132Z,11.83
2019-05-10T06:24:24.016Z,11.56
2019-05-10T06:26:52.720Z,11.45
2019-05-10T06:29:21.388Z,11.44
2019-05-10T06:31:50.066Z,11.30
2019-05-10T06:34:18.730Z,11.19
2019-05-10T06:36:47.419Z,11.06
2019-05-10T06:39:16.102Z,11.13
2019-05-10T06:41:49.949Z,11.09
2019-05-10T06:44:15.164Z,11.18
2019-05-10T06:46:43.830Z,11.27
2019-05-10T06:49:12.523Z,11.14
2019-05-10T06:51:42.812Z,11.06
2019-05-10T06:54:11.622Z,10.97
2019-05-10T06:56:40.302Z,10.96
2019-05-10T06:59:13.339Z,10.89
2019-05-10T07:01:45.874Z,10.97
2019-05-10T07:04:09.769Z,11.06
2019-05-10T07:06:38.433Z,11.10
2019-05-10T07:09:07.578Z,10.99
2019-05-10T07:11:36.248Z,10.98
2019-05-10T07:14:05.002Z,10.99
2019-05-10T07:16:34.105Z,10.96
2019-05-10T07:19:02.779Z,10.92
2019-05-10T07:21:31.479Z,10.86
2019-05-10T07:24:00.182Z,10.90
2019-05-10T07:26:28.845Z,10.98
2019-05-10T07:28:59.250Z,11.05
2019-05-10T07:31:27.919Z,11.26
2019-05-10T07:33:56.595Z,11.34
2019-05-10T07:36:27.258Z,11.44
2019-05-10T07:38:55.818Z,11.38
2019-05-10T07:41:26.648Z,11.41
2019-05-10T07:44:00.396Z,11.26
2019-05-10T07:46:25.279Z,11.06
2019-05-10T07:48:54.102Z,11.04
2019-05-10T07:51:28.306Z,10.96
2019-05-10T07:53:57.092Z,10.93
2019-05-10T07:56:23.534Z,10.94
2019-05-10T07:58:52.192Z,10.89
2019-05-10T08:01:30.783Z,11.02
2019-05-10T08:03:52.526Z,11.06
2019-05-10T08:06:21.317Z,11.09
2019-05-10T08:08:49.973Z,11.36
2019-05-10T08:11:19.165Z,11.47
2019-05-10T08:13:48.610Z,11.69
2019-05-10T08:16:22.743Z,11.47
2019-05-10T08:18:49.735Z,11.77
2019-05-10T08:21:22.139Z,11.62
2019-05-10T08:23:48.754Z,11.74
2019-05-10T08:26:21.969Z,11.94
2019-05-10T08:28:47.895Z,12.15
2019-05-10T08:31:16.640Z,12.29
2019-05-10T08:33:56.179Z,12.21
2019-05-10T08:36:15.696Z,12.19
2019-05-10T08:38:50.036Z,11.83
2019-05-10T08:41:18.372Z,11.58
2019-05-10T08:43:45.505Z,11.44
2019-05-10T08:46:19.479Z,11.18
2019-05-10T08:48:50.332Z,11.19
2019-05-10T08:51:15.751Z,11.48
2019-05-10T08:53:47.105Z,11.81
2019-05-10T08:56:20.904Z,12.01
2019-05-10T08:58:45.238Z,12.01
2019-05-10T09:01:25.844Z,12.29
2019-05-10T09:03:47.141Z,12.22
2019-05-10T09:06:16.986Z,12.18
2019-05-10T09:08:45.153Z,12.30
2019-05-10T09:11:16.231Z,12.59
2019-05-10T09:13:46.204Z,12.53
2019-05-10T09:16:14.642Z,12.85
2019-05-10T09:18:50.309Z,13.41
2019-05-10T09:21:14.478Z,13.92
2019-05-10T09:23:43.348Z,13.69
2019-05-10T09:26:16.472Z,13.75
2019-05-10T09:28:42.404Z,14.37
2019-05-10T09:31:18.701Z,14.35
2019-05-10T09:33:49.293Z,14.62
2019-05-10T09:36:12.487Z,14.88
2019-05-10T09:38:43.534Z,14.56
2019-05-10T09:41:11.989Z,14.37
2019-05-10T09:43:48.336Z,13.67
2019-05-10T09:46:11.488Z,13.78
2019-05-10T09:48:44.721Z,14.01
2019-05-10T09:51:13.676Z,14.19
2019-05-10T09:53:42.637Z,14.29
2019-05-10T09:56:11.291Z,13.94
2019-05-10T09:58:40.002Z,13.52
2019-05-10T10:01:17.713Z,13.07
2019-05-10T10:03:43.308Z,12.68
2019-05-10T10:06:11.364Z,12.46
2019-05-10T10:08:43.406Z,12.49
2019-05-10T10:11:15.684Z,12.68
2019-05-10T10:13:43.926Z,12.48
2019-05-10T10:16:14.666Z,12.21
2019-05-10T10:18:41.852Z,12.16
2019-05-10T10:21:13.133Z,12.12
2019-05-10T10:23:40.999Z,12.17
2019-05-10T10:26:12.572Z,12.36
2019-05-10T10:28:40.028Z,13.22
2019-05-10T10:31:08.786Z,13.91
2019-05-10T10:33:38.025Z,14.52
2019-05-10T10:36:10.001Z,14.79
2019-05-10T10:38:45.274Z,14.64
2019-05-10T10:41:08.245Z,14.86
2019-05-10T10:43:37.399Z,15.80
2019-05-10T10:46:12.102Z,17.02
2019-05-10T10:48:37.071Z,16.56
2019-05-10T10:51:08.093Z,16.98
2019-05-10T10:53:36.315Z,15.96
2019-05-10T10:56:07.472Z,16.04
2019-05-10T10:58:35.519Z,17.01
2019-05-10T11:01:10.863Z,16.06
2019-05-10T11:03:34.681Z,16.33
2019-05-10T11:06:03.365Z,16.44
2019-05-10T11:08:33.230Z,16.19
2019-05-10T11:11:02.846Z,15.87
2019-05-10T11:13:57.549Z,15.12
2019-05-10T11:16:09.700Z,14.38
2019-05-10T11:18:32.366Z,14.11
2019-05-10T11:21:01.965Z,14.05
2019-05-10T11:23:38.654Z,14.25
2019-05-10T11:26:01.520Z,14.60
2019-05-10T11:28:38.770Z,14.62
2019-05-10T11:31:01.169Z,15.06
2019-05-10T11:33:33.345Z,15.54
2019-05-10T11:36:03.948Z,15.63
2019-05-10T11:38:31.726Z,15.47
2019-05-10T11:41:01.972Z,15.70
2019-05-10T11:43:31.417Z,15.95
2019-05-10T11:46:00.248Z,16.01
2019-05-10T11:48:36.914Z,16.22
2019-05-10T11:50:59.319Z,15.49
2019-05-10T11:53:27.975Z,15.61
2019-05-10T11:55:56.633Z,15.84
2019-05-10T11:58:25.344Z,16.86
2019-05-10T12:00:59.355Z,19.08
2019-05-10T12:03:24.423Z,17.68
2019-05-10T12:06:04.555Z,18.40
2019-05-10T12:08:23.547Z,18.34
2019-05-10T12:10:56.632Z,17.19
2019-05-10T12:13:24.953Z,17.57
2019-05-10T12:15:53.066Z,16.75
2019-05-10T12:18:26.969Z,18.18
2019-05-10T12:21:08.049Z,18.64
2019-05-10T12:23:30.145Z,17.52
2019-05-10T12:26:59.195Z,17.18
2019-05-10T12:28:28.560Z,17.11
2019-05-10T12:30:53.745Z,16.50
2019-05-10T12:33:25.783Z,17.18
2019-05-10T12:35:52.913Z,17.70
2019-05-10T12:38:23.582Z,16.95
2019-05-10T12:40:52.009Z,16.03
2019-05-10T12:43:21.205Z,15.27
2019-05-10T12:45:51.775Z,15.83
2019-05-10T12:48:23.208Z,16.58
2019-05-10T12:50:54.476Z,17.94
2019-05-10T12:53:21.572Z,17.18
2019-05-10T12:55:50.340Z,17.08
2019-05-10T12:58:19.020Z,17.27
2019-05-10T13:00:52.534Z,17.44
2019-05-10T13:03:19.477Z,17.23
2019-05-10T13:05:53.174Z,16.68
2019-05-10T13:08:18.907Z,16.39
2019-05-10T13:10:49.913Z,16.52
2019-05-10T13:13:23.748Z,17.10
2019-05-10T13:15:48.329Z,16.14
2019-05-10T13:18:16.978Z,15.62
2019-05-10T13:20:45.819Z,15.95
2019-05-10T13:23:16.339Z,16.56
2019-05-10T13:25:44.964Z,16.72
2019-05-10T13:28:13.641Z,17.43
2019-05-10T13:30:42.412Z,17.80
2019-05-10T13:33:11.062Z,17.78
2019-05-10T13:35:39.719Z,18.22
2019-05-10T13:38:08.402Z,18.37
2019-05-10T13:40:39.013Z,18.35
2019-05-10T13:43:07.441Z,18.58
2019-05-10T13:45:37.866Z,18.24
2019-05-10T13:48:07.871Z,18.75
2019-05-10T13:50:36.538Z,18.91
2019-05-10T13:53:05.296Z,18.09
2019-05-10T13:55:34.009Z,17.29
2019-05-10T13:58:02.680Z,17.34
2019-05-10T14:00:34.208Z,17.68
2019-05-10T14:03:04.837Z,19.16
2019-05-10T14:05:32.291Z,17.94
2019-05-10T14:08:00.945Z,17.60
2019-05-10T14:10:29.715Z,17.18
2019-05-10T14:13:02.713Z,17.72
2019-05-10T14:15:28.750Z,17.56
2019-05-10T14:17:57.454Z,17.46
2019-05-10T14:20:27.730Z,17.44
2019-05-10T14:22:58.784Z,17.94
2019-05-10T14:25:29.500Z,17.19
2019-05-10T14:27:57.376Z,17.12
2019-05-10T14:30:26.099Z,18.27
2019-05-10T14:32:54.779Z,17.81
2019-05-10T14:35:24.563Z,17.43
2019-05-10T14:37:53.283Z,17.63
2019-05-10T14:40:27.844Z,17.29
2019-05-10T14:42:52.358Z,17.53
2019-05-10T14:45:21.403Z,17.85
2019-05-10T14:47:50.681Z,17.75
2019-05-10T14:50:25.564Z,17.31
2019-05-10T14:52:50.063Z,17.07
2019-05-10T14:55:18.712Z,16.95
2019-05-10T14:57:47.373Z,16.43
2019-05-10T15:00:17.404Z,16.27
2019-05-10T15:02:46.055Z,15.92
2019-05-10T15:05:16.354Z,15.46
2019-05-10T15:07:45.349Z,14.86
2019-05-10T15:10:14.252Z,14.77
2019-05-10T15:12:42.931Z,14.80
2019-05-10T15:15:11.943Z,14.92
2019-05-10T15:17:40.667Z,15.04
2019-05-10T15:20:09.596Z,14.73
2019-05-10T15:22:38.264Z,14.65
2019-05-10T15:25:07.175Z,15.07
2019-05-10T15:27:35.859Z,15.13
2019-05-10T15:30:08.019Z,15.51
2019-05-10T15:32:35.987Z,15.65
2019-05-10T15:35:07.912Z,15.57
2019-05-10T15:37:40.579Z,15.32
2019-05-10T15:40:07.963Z,14.78
2019-05-10T15:42:38.449Z,14.59
2019-05-10T15:45:12.045Z,14.01
2019-05-10T15:47:49.936Z,13.31
2019-05-10T15:50:09.133Z,13.07
2019-05-10T15:52:39.626Z,13.31
2019-05-10T15:55:08.413Z,13.77
2019-05-10T15:57:37.066Z,14.29
2019-05-10T16:00:06.452Z,15.00
2019-05-10T16:02:35.137Z,15.73
2019-05-10T16:05:22.230Z,17.32
2019-05-10T16:07:34.399Z,16.86
2019-05-10T16:10:03.111Z,16.45
2019-05-10T16:12:31.761Z,15.72
2019-05-10T16:15:00.445Z,15.44
2019-05-10T16:17:29.126Z,15.28
2019-05-10T16:20:00.234Z,15.04
2019-05-10T16:22:30.233Z,14.95
2019-05-10T16:25:01.047Z,15.02
2019-05-10T16:27:33.916Z,14.74
2019-05-10T16:29:59.421Z,14.74
2019-05-10T16:32:29.440Z,14.71
2019-05-10T16:34:58.469Z,14.58
2019-05-10T16:37:27.124Z,14.31
2019-05-10T16:39:55.823Z,14.35
2019-05-10T16:42:27.831Z,14.15
2019-05-10T16:44:54.832Z,14.10
2019-05-10T16:47:23.507Z,13.95
2019-05-10T16:49:53.316Z,13.77
2019-05-10T16:52:25.993Z,13.73
2019-05-10T16:54:58.121Z,13.70
2019-05-10T16:57:23.394Z,13.71
2019-05-10T16:59:52.079Z,13.77
2019-05-10T17:02:20.731Z,13.77
2019-05-10T17:04:49.380Z,13.78
2019-05-10T17:07:18.958Z,13.80
2019-05-10T17:09:49.553Z,13.89
2019-05-10T17:12:21.948Z,14.02
2019-05-10T17:14:50.613Z,14.45
2019-05-10T17:17:19.717Z,14.80
2019-05-10T17:19:48.446Z,15.00
2019-05-10T17:22:17.117Z,15.25
2019-05-10T17:24:45.794Z,15.44
2019-05-10T17:27:14.544Z,15.19
2019-05-10T17:29:44.530Z,15.06
2019-05-10T17:32:13.648Z,14.78
2019-05-10T17:34:42.305Z,14.23
2019-05-10T17:37:10.979Z,14.05
2019-05-10T17:39:39.623Z,13.88
2019-05-10T17:42:08.384Z,13.71
2019-05-10T17:44:37.051Z,13.62
2019-05-10T17:47:05.728Z,13.42
2019-05-10T17:49:34.403Z,13.30
2019-05-10T17:52:03.099Z,13.19
2019-05-10T17:54:33.863Z,13.07
2019-05-10T17:57:02.157Z,13.06
2019-05-10T17:59:30.827Z,12.95
2019-05-10T18:01:59.558Z,13.06
2019-05-10T18:04:28.238Z,13.05
2019-05-10T18:06:56.891Z,13.38
2019-05-10T18:09:25.544Z,14.39
2019-05-10T18:11:54.229Z,14.90
2019-05-10T18:14:22.880Z,14.38
2019-05-10T18:16:51.532Z,14.47
2019-05-10T18:19:24.814Z,14.20
2019-05-10T18:21:54.962Z,13.43
2019-05-10T18:24:20.977Z,12.59
2019-05-10T18:26:49.665Z,12.04
2019-05-10T18:29:18.385Z,11.74
2019-05-10T18:31:54.822Z,11.50
2019-05-10T18:34:17.415Z,11.32
2019-05-10T18:36:51.563Z,11.13
2019-05-10T18:39:17.764Z,10.96
2019-05-10T18:41:48.015Z,10.77
2019-05-10T18:44:16.765Z,10.70
2019-05-10T18:46:45.417Z,10.64
2019-05-10T18:49:14.077Z,10.64
2019-05-10T18:51:42.768Z,10.66
2019-05-10T18:54:11.519Z,10.74
2019-05-10T18:56:40.173Z,10.78
2019-05-10T18:59:09.432Z,10.75
2019-05-10T19:01:40.299Z,10.68
2019-05-10T19:04:14.222Z,10.62
2019-05-10T19:06:44.173Z,10.49
2019-05-10T19:09:09.542Z,10.39
2019-05-10T19:11:38.949Z,10.26
2019-05-10T19:14:08.635Z,10.08
2019-05-10T19:16:37.312Z,9.94
2019-05-10T19:19:05.991Z,9.81
2019-05-10T19:21:37.710Z,9.72
2019-05-10T19:24:05.047Z,9.79
2019-05-10T19:26:33.700Z,9.93
2019-05-10T19:29:05.438Z,9.95
2019-05-10T19:31:37.950Z,9.93
2019-05-10T19:34:03.221Z,9.75
2019-05-10T19:36:31.903Z,9.62
2019-05-10T19:39:00.562Z,9.59
2019-05-10T19:41:29.221Z,9.59
2019-05-10T19:44:02.528Z,9.68
2019-05-10T19:46:30.095Z,9.74
2019-05-10T19:48:58.759Z,9.74
2019-05-10T19:51:27.418Z,9.66
2019-05-10T19:53:56.124Z,9.56
2019-05-10T19:56:30.102Z,9.51
2019-05-10T19:58:55.252Z,9.47
2019-05-10T20:01:23.912Z,9.48
2019-05-10T20:03:52.594Z,9.45
2019-05-10T20:06:21.276Z,9.42
2019-05-10T20:08:49.941Z,9.40
2019-05-10T20:11:18.621Z,9.37
2019-05-10T20:13:47.321Z,9.40
2019-05-10T20:16:15.982Z,9.44
2019-05-10T20:18:44.638Z,9.44
2019-05-10T20:21:13.385Z,9.41
2019-05-10T20:23:41.988Z,9.35
2019-05-10T20:26:10.645Z,9.28
2019-05-10T20:28:39.325Z,9.36
2019-05-10T20:31:08.060Z,9.28
2019-05-10T20:33:36.709Z,9.33
2019-05-10T20:36:05.407Z,9.35
2019-05-10T20:38:34.068Z,9.31
2019-05-10T20:41:02.728Z,9.21
2019-05-10T20:43:31.516Z,9.18
2019-05-10T20:46:00.176Z,9.16
2019-05-10T20:48:28.846Z,9.13
2019-05-10T20:50:57.577Z,9.03
2019-05-10T20:53:26.317Z,8.92
2019-05-10T20:55:54.974Z,8.69
2019-05-10T20:58:23.648Z,8.60
2019-05-10T21:00:52.315Z,8.60
2019-05-10T21:03:20.999Z,8.45
2019-05-10T21:05:49.975Z,8.47
2019-05-10T21:08:18.657Z,8.47
2019-05-10T21:10:47.312Z,8.36
2019-05-10T21:13:16.076Z,8.30
2019-05-10T21:15:44.778Z,8.34
2019-05-10T21:18:13.467Z,8.30
2019-05-10T21:20:42.128Z,8.26
2019-05-10T21:23:10.833Z,8.31
2019-05-10T21:25:39.497Z,8.32
2019-05-10T21:28:08.173Z,8.33
2019-05-10T21:30:36.869Z,8.36
2019-05-10T21:33:05.550Z,8.33
2019-05-10T21:35:34.215Z,8.35
2019-05-10T21:38:02.903Z,8.34
2019-05-10T21:40:31.561Z,8.28
2019-05-10T21:43:00.265Z,8.36
2019-05-10T21:45:28.930Z,8.46
2019-05-10T21:47:57.586Z,8.49
2019-05-10T21:50:26.270Z,8.49
2019-05-10T21:52:54.956Z,8.44
2019-05-10T21:55:23.613Z,8.26
2019-05-10T21:57:52.379Z,8.29
2019-05-10T22:00:23.925Z,8.39
2019-05-10T22:02:52.683Z,8.50
2019-05-10T22:05:21.379Z,8.53
2019-05-10T22:07:50.138Z,8.48
2019-05-10T22:10:18.877Z,8.50
2019-05-10T22:12:47.552Z,8.47
2019-05-10T22:15:16.246Z,8.42
2019-05-10T22:17:44.935Z,8.45
2019-05-10T22:20:13.745Z,8.47
2019-05-10T22:22:42.407Z,8.50
2019-05-10T22:25:11.165Z,8.45
2019-05-10T22:27:39.862Z,8.53
2019-05-10T22:30:12.152Z,8.42
2019-05-10T22:32:40.119Z,8.26
2019-05-10T22:35:08.950Z,8.33
2019-05-10T22:37:37.603Z,8.21
2019-05-10T22:40:06.679Z,8.28
2019-05-10T22:42:35.362Z,8.25
2019-05-10T22:45:04.174Z,8.26
2019-05-10T22:47:32.828Z,8.24
2019-05-10T22:50:01.493Z,8.24
2019-05-10T22:52:30.180Z,8.30
2019-05-10T22:55:00.606Z,8.22
2019-05-10T22:57:29.217Z,8.29
2019-05-10T22:59:57.902Z,8.47
2019-05-10T23:02:26.646Z,8.51
2019-05-10T23:04:55.263Z,8.42
2019-05-10T23:07:23.919Z,8.22
2019-05-10T23:09:52.606Z,8.16
2019-05-10T23:12:21.264Z,8.18
2019-05-10T23:14:50.002Z,8.10
2019-05-10T23:17:18.678Z,8.07
2019-05-10T23:19:47.337Z,7.91
2019-05-10T23:22:16.018Z,7.88
2019-05-10T23:24:44.758Z,7.91
2019-05-10T23:27:13.465Z,7.84
2019-05-10T23:29:42.148Z,7.82
2019-05-10T23:32:10.838Z,7.84
2019-05-10T23:34:39.546Z,7.82
2019-05-10T23:37:08.200Z,7.82
2019-05-10T23:39:40.918Z,7.81
2019-05-10T23:42:07.266Z,7.84
2019-05-10T23:44:35.974Z,7.83
2019-05-10T23:47:04.637Z,7.76
2019-05-10T23:49:33.408Z,7.62
2019-05-10T23:52:02.242Z,7.44
2019-05-10T23:54:30.930Z,7.44
2019-05-10T23:56:59.653Z,7.55
2019-05-10T23:59:28.308Z,7.61
